Aurora, CO

1:15 PM MDT on September 04, 2015 (GMT -0600)
Denver | | Change Station
CLOSE
Current Station
Airport
Location: Denver,
Elevation: 5430 ft
Nearby Weather Stations

Elev 5430 ft 39.85 °N, 104.66 °W | Updated 22 minutes ago

Mostly Cloudy
Mostly Cloudy
87 °F
Feels Like 87 °F
N
16
Wind Variable Wind from SSE
Gusts 23 mph

Today
High -- | Low -- °F
--% Chance of Precip.
Yesterday
High -- | Low -- °F
Precip. -- in
6:29 AM 7:25 PM
Waning Gibbous, 57% visible
Pressure 29.76 in
Visibility 10.0 miles
Clouds Few 9000 ft
Few 12000 ft
Mostly Cloudy 22000 ft
Dew Point 38 °F
Humidity 18%
Rainfall 0.00 in
Snow Depth Not available.
UV 5 out of 12
Pollen 10.10 out of 12
Air Quality Not available.
Flu Activity Not available.
METAR KDEN 041853Z 15014G20KT 10SM FEW090 FEW120 BKN220 31/03 A3000 RMK AO2 SLP076 T03060033
Pressure 29.76 in
Visibility 10.0 miles
Clouds Few 9000 ft
Few 12000 ft
Mostly Cloudy 22000 ft
Dew Point 38 °F
Humidity 18%
Rainfall 0.00 in
Snow Depth Not available.
UV 5 out of 12
Pollen 10.10 out of 12
Air Quality Not available.
Flu Activity Not available.
METAR KDEN 041853Z 15014G20KT 10SM FEW090 FEW120 BKN220 31/03 A3000 RMK AO2 SLP076 T03060033

10-Day Weather Forecast

×

Almanac

Astronomy

Sep. 04, 2015 Rise Set
Actual Time
Civil Twilight
Nautical Twilight
Astronomical Twilight
Moon
Length of Visible Light
Length of Day
Tomorrow will be .
, % of the Moon is Illuminated

Today's Extremes

State Highs State Lows

Community

WunderPhotos

Upload Photos

1,852,271 photos uploaded!

WunderBlogs® & News

Nearby

Air Quality

  Air Quality AQ Index Pollutant
Not available.

Snow Depth

Station Depth Elevation

Earthquake Activity

City Distance Mag. Time & Date
Minimum magnitude displayed is 2.5.

Coastal Water Temperatures

Place Temperature

Stations

Nearby Weather Stations

Station Location Temp. Windchill Dew Point Humidity Wind Precip. Elev Updated Type